sensor_id;sensor_type;location;lat;lon;timestamp;P1;durP1;ratioP1;P2;durP2;ratioP2
67930;SDS011;63902;52.000;5.954;2023-04-01T00:00:36;3.95;;;1.25;;
67930;SDS011;63902;52.000;5.954;2023-04-01T00:01:36;4.20;;;1.60;;
67930;SDS011;63902;52.000;5.954;2023-04-01T00:02:37;3.00;;;1.10;;
67930;SDS011;63902;52.000;5.954;2023-04-01T00:03:37;5.20;;;2.00;;
67930;SDS011;63902;52.000;5.954;2023-04-01T00:04:38;7.28;;;1.40;;
67930;SDS011;63902;52.000;5.954;2023-04-01T00:05:39;10.27;;;1.67;;
67930;SDS011;63902;52.000;5.954;2023-04-01T00:06:41;4.47;;;1.35;;
67930;SDS011;63902;52.000;5.954;2023-04-01T00:07:41;5.07;;;2.08;;
67930;SDS011;63902;52.000;5.954;2023-04-01T00:08:42;3.72;;;2.00;;
67930;SDS011;63902;52.000;5.954;2023-04-01T00:09:43;3.13;;;1.75;;
67930;SDS011;63902;52.000;5.954;2023-04-01T00:10:43;4.85;;;1.48;;
67930;SDS011;63902;52.000;5.954;2023-04-01T00:11:44;3.67;;;1.40;;
67930;SDS011;63902;52.000;5.954;2023-04-01T00:12:45;5.55;;;1.38;;
67930;SDS011;63902;52.000;5.954;2023-04-01T00:13:45;6.05;;;1.58;;
67930;SDS011;63902;52.000;5.954;2023-04-01T00:14:46;6.38;;;1.45;;
67930;SDS011;63902;52.000;5.954;2023-04-01T00:15:46;3.97;;;1.70;;
67930;SDS011;63902;52.000;5.954;2023-04-01T00:16:47;3.33;;;1.20;;
67930;SDS011;63902;52.000;5.954;2023-04-01T00:17:48;2.10;;;1.20;;
67930;SDS011;63902;52.000;5.954;2023-04-01T00:18:49;3.22;;;1.50;;
67930;SDS011;63902;52.000;5.954;2023-04-01T00:19:50;4.57;;;1.17;;
67930;SDS011;63902;52.000;5.954;2023-04-01T00:20:51;4.78;;;1.52;;
67930;SDS011;63902;52.000;5.954;2023-04-01T00:21:53;5.15;;;1.20;;
67930;SDS011;63902;52.000;5.954;2023-04-01T00:22:54;3.28;;;1.30;;
67930;SDS011;63902;52.000;5.954;2023-04-01T00:23:54;5.30;;;1.33;;
67930;SDS011;63902;52.000;5.954;2023-04-01T00:24:55;2.60;;;1.30;;
67930;SDS011;63902;52.000;5.954;2023-04-01T00:25:55;5.45;;;1.38;;
67930;SDS011;63902;52.000;5.954;2023-04-01T00:26:56;4.80;;;1.60;;
67930;SDS011;63902;52.000;5.954;2023-04-01T00:27:56;2.05;;;1.30;;
67930;SDS011;63902;52.000;5.954;2023-04-01T00:28:58;5.65;;;1.80;;
67930;SDS011;63902;52.000;5.954;2023-04-01T00:29:58;4.55;;;1.80;;
67930;SDS011;63902;52.000;5.954;2023-04-01T00:31:00;4.07;;;1.40;;
67930;SDS011;63902;52.000;5.954;2023-04-01T00:32:04;3.85;;;1.50;;
67930;SDS011;63902;52.000;5.954;2023-04-01T00:33:05;2.00;;;1.35;;
67930;SDS011;63902;52.000;5.954;2023-04-01T00:34:05;2.92;;;1.60;;
67930;SDS011;63902;52.000;5.954;2023-04-01T00:35:06;10.30;;;1.98;;
67930;SDS011;63902;52.000;5.954;2023-04-01T00:36:08;2.75;;;1.45;;
67930;SDS011;63902;52.000;5.954;2023-04-01T00:37:10;4.80;;;2.00;;
67930;SDS011;63902;52.000;5.954;2023-04-01T00:38:11;4.53;;;1.70;;
67930;SDS011;63902;52.000;5.954;2023-04-01T00:39:12;4.35;;;1.60;;
67930;SDS011;63902;52.000;5.954;2023-04-01T00:40:21;2.80;;;1.90;;
67930;SDS011;63902;52.000;5.954;2023-04-01T00:41:24;3.55;;;1.90;;
67930;SDS011;63902;52.000;5.954;2023-04-01T00:42:25;2.40;;;1.48;;
67930;SDS011;63902;52.000;5.954;2023-04-01T00:43:25;3.50;;;1.80;;
67930;SDS011;63902;52.000;5.954;2023-04-01T00:44:26;3.40;;;1.52;;
67930;SDS011;63902;52.000;5.954;2023-04-01T00:45:30;4.10;;;2.10;;
67930;SDS011;63902;52.000;5.954;2023-04-01T00:46:32;4.75;;;1.98;;
67930;SDS011;63902;52.000;5.954;2023-04-01T00:47:33;3.22;;;1.90;;
67930;SDS011;63902;52.000;5.954;2023-04-01T00:48:34;6.72;;;1.88;;
67930;SDS011;63902;52.000;5.954;2023-04-01T00:49:36;4.25;;;2.10;;
67930;SDS011;63902;52.000;5.954;2023-04-01T00:50:40;8.43;;;2.17;;
67930;SDS011;63902;52.000;5.954;2023-04-01T00:51:45;5.05;;;2.28;;
67930;SDS011;63902;52.000;5.954;2023-04-01T00:52:48;5.10;;;2.20;;
67930;SDS011;63902;52.000;5.954;2023-04-01T00:53:50;3.22;;;2.45;;
67930;SDS011;63902;52.000;5.954;2023-04-01T00:54:54;4.47;;;2.10;;
67930;SDS011;63902;52.000;5.954;2023-04-01T00:56:00;4.57;;;2.15;;
67930;SDS011;63902;52.000;5.954;2023-04-01T00:57:05;4.65;;;2.30;;
67930;SDS011;63902;52.000;5.954;2023-04-01T00:58:10;6.75;;;2.60;;
67930;SDS011;63902;52.000;5.954;2023-04-01T00:59:15;5.65;;;2.58;;
67930;SDS011;63902;52.000;5.954;2023-04-01T01:00:19;7.47;;;2.78;;
67930;SDS011;63902;52.000;5.954;2023-04-01T01:01:20;6.03;;;2.88;;
67930;SDS011;63902;52.000;5.954;2023-04-01T01:02:22;4.05;;;2.70;;
67930;SDS011;63902;52.000;5.954;2023-04-01T01:03:22;12.63;;;3.03;;
67930;SDS011;63902;52.000;5.954;2023-04-01T01:04:24;4.30;;;2.70;;
67930;SDS011;63902;52.000;5.954;2023-04-01T01:05:29;4.32;;;2.38;;
67930;SDS011;63902;52.000;5.954;2023-04-01T01:06:38;9.40;;;3.00;;
67930;SDS011;63902;52.000;5.954;2023-04-01T01:07:48;3.60;;;2.63;;
67930;SDS011;63902;52.000;5.954;2023-04-01T01:09:12;4.78;;;2.55;;
67930;SDS011;63902;52.000;5.954;2023-04-01T01:10:26;6.32;;;3.13;;
67930;SDS011;63902;52.000;5.954;2023-04-01T01:11:32;9.48;;;3.80;;
67930;SDS011;63902;52.000;5.954;2023-04-01T01:12:38;8.02;;;4.07;;
67930;SDS011;63902;52.000;5.954;2023-04-01T01:13:43;11.85;;;4.05;;
67930;SDS011;63902;52.000;5.954;2023-04-01T01:14:54;7.75;;;4.20;;
67930;SDS011;63902;52.000;5.954;2023-04-01T01:16:02;6.40;;;3.83;;
67930;SDS011;63902;52.000;5.954;2023-04-01T01:17:09;8.40;;;4.55;;
67930;SDS011;63902;52.000;5.954;2023-04-01T01:18:18;7.60;;;4.55;;
67930;SDS011;63902;52.000;5.954;2023-04-01T01:19:32;7.85;;;4.50;;
67930;SDS011;63902;52.000;5.954;2023-04-01T01:20:48;9.02;;;4.57;;
67930;SDS011;63902;52.000;5.954;2023-04-01T01:22:18;8.18;;;4.53;;
67930;SDS011;63902;52.000;5.954;2023-04-01T01:23:39;7.35;;;4.75;;
67930;SDS011;63902;52.000;5.954;2023-04-01T01:24:58;7.70;;;5.13;;
67930;SDS011;63902;52.000;5.954;2023-04-01T01:26:15;12.68;;;4.70;;
67930;SDS011;63902;52.000;5.954;2023-04-01T01:27:45;12.15;;;5.43;;
67930;SDS011;63902;52.000;5.954;2023-04-01T01:28:57;8.68;;;4.70;;
67930;SDS011;63902;52.000;5.954;2023-04-01T01:30:11;8.05;;;5.03;;
67930;SDS011;63902;52.000;5.954;2023-04-01T01:31:19;7.55;;;5.28;;
67930;SDS011;63902;52.000;5.954;2023-04-01T01:32:27;6.78;;;4.97;;
67930;SDS011;63902;52.000;5.954;2023-04-01T01:33:49;12.35;;;5.32;;
67930;SDS011;63902;52.000;5.954;2023-04-01T01:35:05;12.05;;;5.32;;
67930;SDS011;63902;52.000;5.954;2023-04-01T01:36:14;12.70;;;5.28;;
67930;SDS011;63902;52.000;5.954;2023-04-01T01:37:17;9.23;;;5.30;;
67930;SDS011;63902;52.000;5.954;2023-04-01T01:38:23;7.63;;;5.22;;
67930;SDS011;63902;52.000;5.954;2023-04-01T01:39:27;10.65;;;5.68;;
67930;SDS011;63902;52.000;5.954;2023-04-01T01:40:30;11.98;;;6.05;;
67930;SDS011;63902;52.000;5.954;2023-04-01T01:41:33;17.92;;;6.00;;
67930;SDS011;63902;52.000;5.954;2023-04-01T01:42:35;13.10;;;6.70;;
67930;SDS011;63902;52.000;5.954;2023-04-01T01:43:39;12.25;;;6.57;;
67930;SDS011;63902;52.000;5.954;2023-04-01T01:44:42;7.13;;;5.75;;
67930;SDS011;63902;52.000;5.954;2023-04-01T01:45:46;11.45;;;7.22;;
67930;SDS011;63902;52.000;5.954;2023-04-01T01:46:49;10.43;;;6.15;;
67930;SDS011;63902;52.000;5.954;2023-04-01T01:47:50;10.57;;;5.85;;
67930;SDS011;63902;52.000;5.954;2023-04-01T01:48:52;9.32;;;6.28;;
67930;SDS011;63902;52.000;5.954;2023-04-01T01:49:55;11.80;;;6.53;;
67930;SDS011;63902;52.000;5.954;2023-04-01T01:50:58;13.73;;;6.53;;
67930;SDS011;63902;52.000;5.954;2023-04-01T01:51:59;9.30;;;6.07;;
67930;SDS011;63902;52.000;5.954;2023-04-01T01:53:01;7.07;;;5.45;;
67930;SDS011;63902;52.000;5.954;2023-04-01T01:54:02;11.45;;;6.28;;
67930;SDS011;63902;52.000;5.954;2023-04-01T01:55:22;8.02;;;5.15;;
67930;SDS011;63902;52.000;5.954;2023-04-01T01:56:26;8.15;;;5.38;;
67930;SDS011;63902;52.000;5.954;2023-04-01T01:57:29;8.13;;;5.55;;
67930;SDS011;63902;52.000;5.954;2023-04-01T01:58:35;12.32;;;6.25;;
67930;SDS011;63902;52.000;5.954;2023-04-01T01:59:38;9.75;;;5.47;;
67930;SDS011;63902;52.000;5.954;2023-04-01T02:00:41;7.15;;;5.45;;
67930;SDS011;63902;52.000;5.954;2023-04-01T02:01:46;7.38;;;5.28;;
67930;SDS011;63902;52.000;5.954;2023-04-01T02:02:50;8.43;;;5.60;;
67930;SDS011;63902;52.000;5.954;2023-04-01T02:03:50;9.68;;;5.90;;
67930;SDS011;63902;52.000;5.954;2023-04-01T02:04:52;12.15;;;5.75;;
67930;SDS011;63902;52.000;5.954;2023-04-01T02:05:54;8.90;;;5.35;;
67930;SDS011;63902;52.000;5.954;2023-04-01T02:06:59;9.23;;;4.70;;
67930;SDS011;63902;52.000;5.954;2023-04-01T02:08:03;7.63;;;4.50;;
67930;SDS011;63902;52.000;5.954;2023-04-01T02:09:08;6.38;;;4.20;;
67930;SDS011;63902;52.000;5.954;2023-04-01T02:10:10;8.20;;;5.32;;
67930;SDS011;63902;52.000;5.954;2023-04-01T02:11:11;7.68;;;4.80;;
67930;SDS011;63902;52.000;5.954;2023-04-01T02:12:13;7.32;;;4.45;;
67930;SDS011;63902;52.000;5.954;2023-04-01T02:13:16;7.85;;;4.45;;
67930;SDS011;63902;52.000;5.954;2023-04-01T02:14:22;6.68;;;4.60;;
67930;SDS011;63902;52.000;5.954;2023-04-01T02:15:25;12.02;;;5.25;;
67930;SDS011;63902;52.000;5.954;2023-04-01T02:16:28;9.45;;;4.78;;
67930;SDS011;63902;52.000;5.954;2023-04-01T02:17:34;13.02;;;5.32;;
67930;SDS011;63902;52.000;5.954;2023-04-01T02:18:39;12.27;;;4.80;;
67930;SDS011;63902;52.000;5.954;2023-04-01T02:19:44;11.57;;;5.72;;
67930;SDS011;63902;52.000;5.954;2023-04-01T02:20:48;11.90;;;4.30;;
67930;SDS011;63902;52.000;5.954;2023-04-01T02:21:50;12.88;;;4.82;;
67930;SDS011;63902;52.000;5.954;2023-04-01T02:22:54;11.50;;;4.45;;
67930;SDS011;63902;52.000;5.954;2023-04-01T02:23:57;10.68;;;4.75;;
67930;SDS011;63902;52.000;5.954;2023-04-01T02:25:01;10.65;;;4.80;;
67930;SDS011;63902;52.000;5.954;2023-04-01T02:26:05;13.57;;;4.95;;
67930;SDS011;63902;52.000;5.954;2023-04-01T02:27:08;10.95;;;4.68;;
67930;SDS011;63902;52.000;5.954;2023-04-01T02:28:10;12.10;;;5.05;;
67930;SDS011;63902;52.000;5.954;2023-04-01T02:29:13;10.00;;;5.07;;
67930;SDS011;63902;52.000;5.954;2023-04-01T02:30:15;10.57;;;4.30;;
67930;SDS011;63902;52.000;5.954;2023-04-01T02:31:17;6.30;;;3.88;;
67930;SDS011;63902;52.000;5.954;2023-04-01T02:32:18;11.20;;;3.72;;
67930;SDS011;63902;52.000;5.954;2023-04-01T02:33:20;7.22;;;3.47;;
67930;SDS011;63902;52.000;5.954;2023-04-01T02:34:21;12.50;;;4.05;;
67930;SDS011;63902;52.000;5.954;2023-04-01T02:35:23;12.82;;;3.90;;
67930;SDS011;63902;52.000;5.954;2023-04-01T02:36:24;7.25;;;3.17;;
67930;SDS011;63902;52.000;5.954;2023-04-01T02:37:25;11.05;;;3.90;;
67930;SDS011;63902;52.000;5.954;2023-04-01T02:38:27;9.20;;;3.42;;
67930;SDS011;63902;52.000;5.954;2023-04-01T02:39:27;6.93;;;3.08;;
67930;SDS011;63902;52.000;5.954;2023-04-01T02:40:28;8.75;;;3.08;;
67930;SDS011;63902;52.000;5.954;2023-04-01T02:41:29;11.30;;;3.47;;
67930;SDS011;63902;52.000;5.954;2023-04-01T02:42:30;7.10;;;3.55;;
67930;SDS011;63902;52.000;5.954;2023-04-01T02:43:30;13.10;;;3.80;;
67930;SDS011;63902;52.000;5.954;2023-04-01T02:44:31;9.45;;;3.55;;
67930;SDS011;63902;52.000;5.954;2023-04-01T02:45:32;10.90;;;3.95;;
67930;SDS011;63902;52.000;5.954;2023-04-01T02:46:32;8.10;;;4.35;;
67930;SDS011;63902;52.000;5.954;2023-04-01T02:47:33;12.07;;;4.25;;
67930;SDS011;63902;52.000;5.954;2023-04-01T02:48:33;9.68;;;4.13;;
67930;SDS011;63902;52.000;5.954;2023-04-01T02:49:34;10.48;;;4.03;;
67930;SDS011;63902;52.000;5.954;2023-04-01T02:50:34;11.15;;;4.25;;
67930;SDS011;63902;52.000;5.954;2023-04-01T02:51:35;8.65;;;3.60;;
67930;SDS011;63902;52.000;5.954;2023-04-01T02:52:35;8.02;;;3.50;;
67930;SDS011;63902;52.000;5.954;2023-04-01T02:53:37;9.13;;;3.70;;
67930;SDS011;63902;52.000;5.954;2023-04-01T02:54:38;12.35;;;3.92;;
67930;SDS011;63902;52.000;5.954;2023-04-01T02:55:38;9.23;;;3.65;;
67930;SDS011;63902;52.000;5.954;2023-04-01T02:56:39;8.95;;;3.35;;
67930;SDS011;63902;52.000;5.954;2023-04-01T02:57:39;9.80;;;3.50;;
67930;SDS011;63902;52.000;5.954;2023-04-01T02:58:40;7.07;;;3.10;;
67930;SDS011;63902;52.000;5.954;2023-04-01T02:59:40;5.57;;;3.20;;
67930;SDS011;63902;52.000;5.954;2023-04-01T03:00:41;9.30;;;3.17;;
67930;SDS011;63902;52.000;5.954;2023-04-01T03:01:41;5.50;;;3.00;;
67930;SDS011;63902;52.000;5.954;2023-04-01T03:02:42;7.45;;;3.08;;
67930;SDS011;63902;52.000;5.954;2023-04-01T03:03:42;5.95;;;3.00;;
67930;SDS011;63902;52.000;5.954;2023-04-01T03:04:43;7.15;;;3.10;;
67930;SDS011;63902;52.000;5.954;2023-04-01T03:05:43;7.95;;;3.00;;
67930;SDS011;63902;52.000;5.954;2023-04-01T03:06:44;8.13;;;3.00;;
67930;SDS011;63902;52.000;5.954;2023-04-01T03:07:44;5.45;;;3.10;;
67930;SDS011;63902;52.000;5.954;2023-04-01T03:08:46;7.95;;;3.63;;
67930;SDS011;63902;52.000;5.954;2023-04-01T03:09:47;7.32;;;3.40;;
67930;SDS011;63902;52.000;5.954;2023-04-01T03:10:47;14.10;;;4.00;;
67930;SDS011;63902;52.000;5.954;2023-04-01T03:11:48;6.70;;;3.25;;
67930;SDS011;63902;52.000;5.954;2023-04-01T03:12:49;6.07;;;2.95;;
67930;SDS011;63902;52.000;5.954;2023-04-01T03:13:49;5.75;;;2.92;;
67930;SDS011;63902;52.000;5.954;2023-04-01T03:14:50;6.88;;;3.13;;
67930;SDS011;63902;52.000;5.954;2023-04-01T03:15:50;8.02;;;2.97;;
67930;SDS011;63902;52.000;5.954;2023-04-01T03:16:51;4.53;;;2.78;;
67930;SDS011;63902;52.000;5.954;2023-04-01T03:17:51;4.05;;;2.50;;
67930;SDS011;63902;52.000;5.954;2023-04-01T03:18:52;5.63;;;2.80;;
67930;SDS011;63902;52.000;5.954;2023-04-01T03:19:52;5.78;;;3.03;;
67930;SDS011;63902;52.000;5.954;2023-04-01T03:20:53;5.40;;;2.55;;
67930;SDS011;63902;52.000;5.954;2023-04-01T03:21:53;8.35;;;3.10;;
67930;SDS011;63902;52.000;5.954;2023-04-01T03:22:54;4.43;;;2.45;;
67930;SDS011;63902;52.000;5.954;2023-04-01T03:23:56;7.95;;;2.70;;
67930;SDS011;63902;52.000;5.954;2023-04-01T03:24:56;5.93;;;2.90;;
67930;SDS011;63902;52.000;5.954;2023-04-01T03:25:57;7.38;;;4.10;;
67930;SDS011;63902;52.000;5.954;2023-04-01T03:26:57;6.25;;;2.80;;
67930;SDS011;63902;52.000;5.954;2023-04-01T03:27:57;4.68;;;2.78;;
67930;SDS011;63902;52.000;5.954;2023-04-01T03:28:58;4.05;;;2.75;;
67930;SDS011;63902;52.000;5.954;2023-04-01T03:29:58;5.80;;;2.70;;
67930;SDS011;63902;52.000;5.954;2023-04-01T03:30:59;4.93;;;3.13;;
67930;SDS011;63902;52.000;5.954;2023-04-01T03:31:59;4.78;;;3.00;;
67930;SDS011;63902;52.000;5.954;2023-04-01T03:33:00;5.47;;;2.78;;
67930;SDS011;63902;52.000;5.954;2023-04-01T03:34:01;3.53;;;2.60;;
67930;SDS011;63902;52.000;5.954;2023-04-01T03:35:02;5.10;;;2.90;;
67930;SDS011;63902;52.000;5.954;2023-04-01T03:36:02;5.25;;;3.17;;
67930;SDS011;63902;52.000;5.954;2023-04-01T03:37:03;3.80;;;2.58;;
67930;SDS011;63902;52.000;5.954;2023-04-01T03:38:04;3.83;;;2.65;;
67930;SDS011;63902;52.000;5.954;2023-04-01T03:39:06;5.30;;;2.95;;
67930;SDS011;63902;52.000;5.954;2023-04-01T03:40:06;4.78;;;3.28;;
67930;SDS011;63902;52.000;5.954;2023-04-01T03:41:11;4.40;;;2.90;;
67930;SDS011;63902;52.000;5.954;2023-04-01T03:42:12;6.93;;;3.17;;
67930;SDS011;63902;52.000;5.954;2023-04-01T03:43:12;7.20;;;3.20;;
67930;SDS011;63902;52.000;5.954;2023-04-01T03:44:13;5.20;;;2.92;;
67930;SDS011;63902;52.000;5.954;2023-04-01T03:45:14;6.53;;;2.85;;
67930;SDS011;63902;52.000;5.954;2023-04-01T03:46:16;6.47;;;2.90;;
67930;SDS011;63902;52.000;5.954;2023-04-01T03:47:17;4.75;;;3.30;;
67930;SDS011;63902;52.000;5.954;2023-04-01T03:48:18;5.05;;;2.70;;
67930;SDS011;63902;52.000;5.954;2023-04-01T03:49:18;4.15;;;2.97;;
67930;SDS011;63902;52.000;5.954;2023-04-01T03:50:19;4.30;;;2.72;;
67930;SDS011;63902;52.000;5.954;2023-04-01T03:51:19;4.13;;;3.05;;
67930;SDS011;63902;52.000;5.954;2023-04-01T03:52:20;4.38;;;2.80;;
67930;SDS011;63902;52.000;5.954;2023-04-01T03:53:21;5.03;;;3.03;;
67930;SDS011;63902;52.000;5.954;2023-04-01T03:54:23;5.70;;;3.13;;
67930;SDS011;63902;52.000;5.954;2023-04-01T03:55:23;4.53;;;2.38;;
67930;SDS011;63902;52.000;5.954;2023-04-01T03:56:24;5.97;;;3.20;;
67930;SDS011;63902;52.000;5.954;2023-04-01T03:57:24;4.32;;;2.78;;
67930;SDS011;63902;52.000;5.954;2023-04-01T03:58:25;5.15;;;3.40;;
67930;SDS011;63902;52.000;5.954;2023-04-01T03:59:25;6.78;;;3.10;;
67930;SDS011;63902;52.000;5.954;2023-04-01T04:00:26;4.97;;;3.25;;
67930;SDS011;63902;52.000;5.954;2023-04-01T04:01:26;7.20;;;3.53;;
67930;SDS011;63902;52.000;5.954;2023-04-01T04:02:26;5.00;;;3.60;;
67930;SDS011;63902;52.000;5.954;2023-04-01T04:03:27;5.13;;;3.45;;
67930;SDS011;63902;52.000;5.954;2023-04-01T04:04:28;6.15;;;3.78;;
67930;SDS011;63902;52.000;5.954;2023-04-01T04:05:28;6.38;;;3.55;;
67930;SDS011;63902;52.000;5.954;2023-04-01T04:06:29;5.43;;;3.38;;
67930;SDS011;63902;52.000;5.954;2023-04-01T04:07:29;4.75;;;3.25;;
67930;SDS011;63902;52.000;5.954;2023-04-01T04:08:30;5.32;;;3.63;;
67930;SDS011;63902;52.000;5.954;2023-04-01T04:09:31;7.28;;;3.67;;
67930;SDS011;63902;52.000;5.954;2023-04-01T04:10:32;5.72;;;3.38;;
67930;SDS011;63902;52.000;5.954;2023-04-01T04:11:33;5.40;;;3.47;;
67930;SDS011;63902;52.000;5.954;2023-04-01T04:12:33;5.75;;;3.15;;
67930;SDS011;63902;52.000;5.954;2023-04-01T04:13:34;6.28;;;3.63;;
67930;SDS011;63902;52.000;5.954;2023-04-01T04:14:34;8.15;;;3.58;;
67930;SDS011;63902;52.000;5.954;2023-04-01T04:15:35;4.80;;;3.30;;
67930;SDS011;63902;52.000;5.954;2023-04-01T04:16:35;5.15;;;3.17;;
67930;SDS011;63902;52.000;5.954;2023-04-01T04:17:36;7.55;;;3.42;;
67930;SDS011;63902;52.000;5.954;2023-04-01T04:18:36;5.78;;;3.60;;
67930;SDS011;63902;52.000;5.954;2023-04-01T04:19:37;4.70;;;3.35;;
67930;SDS011;63902;52.000;5.954;2023-04-01T04:20:43;7.03;;;2.83;;
67930;SDS011;63902;52.000;5.954;2023-04-01T04:21:44;6.68;;;3.53;;
67930;SDS011;63902;52.000;5.954;2023-04-01T04:22:44;5.07;;;3.35;;
67930;SDS011;63902;52.000;5.954;2023-04-01T04:23:45;4.47;;;3.15;;
67930;SDS011;63902;52.000;5.954;2023-04-01T04:24:47;5.53;;;3.42;;
67930;SDS011;63902;52.000;5.954;2023-04-01T04:25:54;6.72;;;3.40;;
67930;SDS011;63902;52.000;5.954;2023-04-01T04:26:55;5.22;;;3.55;;
67930;SDS011;63902;52.000;5.954;2023-04-01T04:27:56;4.72;;;3.33;;
67930;SDS011;63902;52.000;5.954;2023-04-01T04:28:57;5.95;;;3.33;;
67930;SDS011;63902;52.000;5.954;2023-04-01T04:29:58;6.00;;;4.10;;
67930;SDS011;63902;52.000;5.954;2023-04-01T04:30:58;6.35;;;3.65;;
67930;SDS011;63902;52.000;5.954;2023-04-01T04:31:59;5.25;;;3.47;;
67930;SDS011;63902;52.000;5.954;2023-04-01T04:33:00;10.57;;;3.58;;
67930;SDS011;63902;52.000;5.954;2023-04-01T04:34:00;5.25;;;3.50;;
67930;SDS011;63902;52.000;5.954;2023-04-01T04:35:01;5.82;;;3.70;;
67930;SDS011;63902;52.000;5.954;2023-04-01T04:36:02;7.05;;;4.10;;
67930;SDS011;63902;52.000;5.954;2023-04-01T04:37:04;6.75;;;3.88;;
67930;SDS011;63902;52.000;5.954;2023-04-01T04:38:04;5.85;;;3.83;;
67930;SDS011;63902;52.000;5.954;2023-04-01T04:39:05;7.25;;;4.55;;
67930;SDS011;63902;52.000;5.954;2023-04-01T04:40:07;4.82;;;3.50;;
67930;SDS011;63902;52.000;5.954;2023-04-01T04:41:09;5.55;;;3.72;;
67930;SDS011;63902;52.000;5.954;2023-04-01T04:42:09;6.20;;;4.60;;
67930;SDS011;63902;52.000;5.954;2023-04-01T04:43:11;7.15;;;4.18;;
67930;SDS011;63902;52.000;5.954;2023-04-01T04:44:13;6.93;;;4.30;;
67930;SDS011;63902;52.000;5.954;2023-04-01T04:45:13;6.15;;;4.57;;
67930;SDS011;63902;52.000;5.954;2023-04-01T04:46:14;5.75;;;4.00;;
67930;SDS011;63902;52.000;5.954;2023-04-01T04:47:14;8.50;;;4.40;;
67930;SDS011;63902;52.000;5.954;2023-04-01T04:48:15;6.38;;;4.30;;
67930;SDS011;63902;52.000;5.954;2023-04-01T04:49:16;7.63;;;4.22;;
67930;SDS011;63902;52.000;5.954;2023-04-01T04:50:17;9.60;;;4.90;;
67930;SDS011;63902;52.000;5.954;2023-04-01T04:51:18;6.78;;;4.55;;
67930;SDS011;63902;52.000;5.954;2023-04-01T04:52:19;6.45;;;4.30;;
67930;SDS011;63902;52.000;5.954;2023-04-01T04:53:19;8.18;;;4.82;;
67930;SDS011;63902;52.000;5.954;2023-04-01T04:54:20;5.60;;;4.47;;
67930;SDS011;63902;52.000;5.954;2023-04-01T04:55:22;6.40;;;4.50;;
67930;SDS011;63902;52.000;5.954;2023-04-01T04:56:22;8.38;;;5.18;;
67930;SDS011;63902;52.000;5.954;2023-04-01T04:57:23;8.70;;;4.28;;
67930;SDS011;63902;52.000;5.954;2023-04-01T04:58:23;12.07;;;4.80;;
67930;SDS011;63902;52.000;5.954;2023-04-01T04:59:24;8.25;;;5.78;;
67930;SDS011;63902;52.000;5.954;2023-04-01T05:00:24;5.40;;;4.30;;
67930;SDS011;63902;52.000;5.954;2023-04-01T05:01:25;7.93;;;4.55;;
67930;SDS011;63902;52.000;5.954;2023-04-01T05:02:26;6.80;;;4.82;;
67930;SDS011;63902;52.000;5.954;2023-04-01T05:03:26;6.43;;;4.47;;
67930;SDS011;63902;52.000;5.954;2023-04-01T05:04:27;7.25;;;4.45;;
67930;SDS011;63902;52.000;5.954;2023-04-01T05:05:27;6.40;;;4.22;;
67930;SDS011;63902;52.000;5.954;2023-04-01T05:06:28;5.10;;;3.72;;
67930;SDS011;63902;52.000;5.954;2023-04-01T05:07:28;5.63;;;3.53;;
67930;SDS011;63902;52.000;5.954;2023-04-01T05:08:29;6.15;;;4.13;;
67930;SDS011;63902;52.000;5.954;2023-04-01T05:09:29;5.90;;;4.10;;
67930;SDS011;63902;52.000;5.954;2023-04-01T05:10:31;6.38;;;4.25;;
67930;SDS011;63902;52.000;5.954;2023-04-01T05:11:32;7.40;;;4.18;;
67930;SDS011;63902;52.000;5.954;2023-04-01T05:12:32;5.30;;;3.50;;
67930;SDS011;63902;52.000;5.954;2023-04-01T05:13:33;5.78;;;3.45;;
67930;SDS011;63902;52.000;5.954;2023-04-01T05:14:33;6.30;;;3.70;;
67930;SDS011;63902;52.000;5.954;2023-04-01T05:15:34;5.75;;;3.70;;
67930;SDS011;63902;52.000;5.954;2023-04-01T05:16:35;6.07;;;4.10;;
67930;SDS011;63902;52.000;5.954;2023-04-01T05:17:35;7.18;;;4.07;;
67930;SDS011;63902;52.000;5.954;2023-04-01T05:18:36;4.85;;;3.60;;
67930;SDS011;63902;52.000;5.954;2023-04-01T05:19:37;5.15;;;3.40;;
67930;SDS011;63902;52.000;5.954;2023-04-01T05:20:37;6.68;;;4.03;;
67930;SDS011;63902;52.000;5.954;2023-04-01T05:21:38;5.00;;;3.35;;
67930;SDS011;63902;52.000;5.954;2023-04-01T05:22:38;5.13;;;3.75;;
67930;SDS011;63902;52.000;5.954;2023-04-01T05:23:39;5.57;;;3.70;;
67930;SDS011;63902;52.000;5.954;2023-04-01T05:24:39;6.45;;;4.20;;
67930;SDS011;63902;52.000;5.954;2023-04-01T05:25:41;5.60;;;3.70;;
67930;SDS011;63902;52.000;5.954;2023-04-01T05:26:42;6.05;;;3.70;;
67930;SDS011;63902;52.000;5.954;2023-04-01T05:27:43;5.35;;;3.35;;
67930;SDS011;63902;52.000;5.954;2023-04-01T05:28:43;7.15;;;3.60;;
67930;SDS011;63902;52.000;5.954;2023-04-01T05:29:44;4.38;;;3.33;;
67930;SDS011;63902;52.000;5.954;2023-04-01T05:30:44;5.45;;;4.15;;
67930;SDS011;63902;52.000;5.954;2023-04-01T05:31:45;5.82;;;3.22;;
67930;SDS011;63902;52.000;5.954;2023-04-01T05:32:46;4.13;;;2.92;;
67930;SDS011;63902;52.000;5.954;2023-04-01T05:33:46;4.50;;;3.63;;
67930;SDS011;63902;52.000;5.954;2023-04-01T05:34:49;5.40;;;3.60;;
67930;SDS011;63902;52.000;5.954;2023-04-01T05:35:50;5.00;;;3.38;;
67930;SDS011;63902;52.000;5.954;2023-04-01T05:36:51;4.18;;;2.80;;
67930;SDS011;63902;52.000;5.954;2023-04-01T05:37:51;4.00;;;2.90;;
67930;SDS011;63902;52.000;5.954;2023-04-01T05:38:54;5.18;;;3.05;;
67930;SDS011;63902;52.000;5.954;2023-04-01T05:39:55;6.43;;;3.33;;
67930;SDS011;63902;52.000;5.954;2023-04-01T05:40:59;5.22;;;3.42;;
67930;SDS011;63902;52.000;5.954;2023-04-01T05:42:00;5.10;;;2.80;;
67930;SDS011;63902;52.000;5.954;2023-04-01T05:43:00;3.88;;;2.70;;
67930;SDS011;63902;52.000;5.954;2023-04-01T05:44:01;3.28;;;2.58;;
67930;SDS011;63902;52.000;5.954;2023-04-01T05:45:02;5.20;;;2.92;;
67930;SDS011;63902;52.000;5.954;2023-04-01T05:46:03;4.07;;;2.95;;
67930;SDS011;63902;52.000;5.954;2023-04-01T05:47:03;4.65;;;2.90;;
67930;SDS011;63902;52.000;5.954;2023-04-01T05:48:04;4.15;;;2.85;;
67930;SDS011;63902;52.000;5.954;2023-04-01T05:49:05;5.30;;;2.70;;
67930;SDS011;63902;52.000;5.954;2023-04-01T05:50:05;3.60;;;2.45;;
67930;SDS011;63902;52.000;5.954;2023-04-01T05:51:11;3.72;;;2.60;;
67930;SDS011;63902;52.000;5.954;2023-04-01T05:52:12;4.28;;;2.70;;
67930;SDS011;63902;52.000;5.954;2023-04-01T05:53:13;5.28;;;3.00;;
67930;SDS011;63902;52.000;5.954;2023-04-01T05:54:13;4.13;;;2.72;;
67930;SDS011;63902;52.000;5.954;2023-04-01T05:55:14;5.22;;;2.40;;
67930;SDS011;63902;52.000;5.954;2023-04-01T05:56:16;4.45;;;3.10;;
67930;SDS011;63902;52.000;5.954;2023-04-01T05:57:16;5.07;;;3.25;;
67930;SDS011;63902;52.000;5.954;2023-04-01T05:58:17;8.20;;;3.65;;
67930;SDS011;63902;52.000;5.954;2023-04-01T05:59:17;6.15;;;3.55;;
67930;SDS011;63902;52.000;5.954;2023-04-01T06:00:18;6.07;;;3.40;;
67930;SDS011;63902;52.000;5.954;2023-04-01T06:01:19;6.07;;;3.30;;
67930;SDS011;63902;52.000;5.954;2023-04-01T06:02:20;6.95;;;3.97;;
67930;SDS011;63902;52.000;5.954;2023-04-01T06:03:20;7.32;;;4.07;;
67930;SDS011;63902;52.000;5.954;2023-04-01T06:04:21;8.20;;;4.10;;
67930;SDS011;63902;52.000;5.954;2023-04-01T06:05:22;8.45;;;3.70;;
67930;SDS011;63902;52.000;5.954;2023-04-01T06:06:25;11.15;;;4.30;;
67930;SDS011;63902;52.000;5.954;2023-04-01T06:07:26;7.50;;;4.70;;
67930;SDS011;63902;52.000;5.954;2023-04-01T06:08:29;6.63;;;4.20;;
67930;SDS011;63902;52.000;5.954;2023-04-01T06:09:31;12.48;;;4.70;;
67930;SDS011;63902;52.000;5.954;2023-04-01T06:10:35;7.93;;;4.38;;
67930;SDS011;63902;52.000;5.954;2023-04-01T06:11:51;7.25;;;4.57;;
67930;SDS011;63902;52.000;5.954;2023-04-01T06:13:04;10.10;;;4.85;;
67930;SDS011;63902;52.000;5.954;2023-04-01T06:14:11;13.15;;;5.32;;
67930;SDS011;63902;52.000;5.954;2023-04-01T06:15:23;9.70;;;4.88;;